Time;durP1;ratioP1;P1;durP2;ratioP2;P2;SDS_P1;SDS_P2;PMS_P1;PMS_P2;Temp;Humidity;BMP_temperature;BMP_pressure;BME280_temperature;BME280_humidity;BME280_pressure;Samples;Min_cycle;Max_cycle;Signal;HPM_P1;HPM_P2
2021/12/08 00:00:32;;;;;;;0.47;0.47;;;6.80;81.30;;;;;;5055568;28;20033;-77
2021/12/08 00:02:59;;;;;;;0.70;0.70;;;6.80;81.40;;;;;;5054586;28;20075;-76
2021/12/08 00:05:28;;;;;;;0.70;0.70;;;6.80;81.60;;;;;;5055300;28;20111;-77
2021/12/08 00:07:54;;;;;;;1.52;1.42;;;6.80;81.70;;;;;;5053488;28;20112;-77
2021/12/08 00:13:02;;;;;;;0.20;0.20;;;6.80;81.70;;;;;;5055024;28;20036;-77
2021/12/08 00:15:32;;;;;;;0.40;0.40;;;6.80;81.40;;;;;;5053487;28;20033;-77
2021/12/08 00:17:59;;;;;;;1.35;0.32;;;6.70;81.60;;;;;;5054741;28;20029;-77
2021/12/08 00:20:28;;;;;;;0.47;0.47;;;6.80;81.60;;;;;;5053544;28;20068;-78
2021/12/08 00:22:54;;;;;;;0.30;0.30;;;6.70;81.80;;;;;;5053294;28;20052;-77
2021/12/08 00:25:20;;;;;;;0.30;0.30;;;6.70;81.80;;;;;;5054878;28;20057;-77
2021/12/08 00:27:46;;;;;;;0.40;0.40;;;6.70;81.80;;;;;;5054264;28;20029;-76
2021/12/08 00:30:12;;;;;;;0.20;0.20;;;6.80;81.90;;;;;;5054701;28;20037;-77
2021/12/08 00:32:38;;;;;;;0.20;0.20;;;6.80;81.90;;;;;;5054157;28;20032;-76
2021/12/08 00:35:05;;;;;;;0.30;0.20;;;6.80;81.90;;;;;;5054433;28;20032;-77
2021/12/08 00:37:31;;;;;;;0.30;0.30;;;6.80;81.90;;;;;;5052882;28;20025;-77
2021/12/08 00:39:58;;;;;;;0.20;0.20;;;6.90;82.00;;;;;;5053770;28;20432;-76
2021/12/08 00:42:24;;;;;;;0.30;0.30;;;6.90;81.60;;;;;;5054768;28;20108;-76
2021/12/08 00:44:50;;;;;;;0.10;0.10;;;6.90;81.30;;;;;;5054409;28;20040;-76
2021/12/08 00:47:16;;;;;;;0.10;0.10;;;6.90;81.30;;;;;;5054259;28;20029;-76
2021/12/08 00:49:44;;;;;;;1.27;0.10;;;6.90;81.30;;;;;;5054048;28;20029;-77
2021/12/08 00:52:10;;;;;;;0.10;0.10;;;6.90;81.40;;;;;;5054152;28;20029;-76
2021/12/08 00:54:36;;;;;;;0.60;0.00;;;6.90;81.60;;;;;;5054801;28;20131;-77
2021/12/08 00:57:02;;;;;;;0.28;0.28;;;6.90;81.60;;;;;;5054098;28;20033;-78
2021/12/08 00:59:28;;;;;;;0.00;0.00;;;7.00;81.60;;;;;;5053206;28;20449;-77
2021/12/08 01:01:54;;;;;;;0.77;0.77;;;7.00;81.40;;;;;;5054425;28;20047;-77
2021/12/08 01:04:20;;;;;;;0.15;0.15;;;7.00;81.00;;;;;;5053943;28;20052;-78
2021/12/08 01:06:46;;;;;;;0.57;0.57;;;7.00;81.10;;;;;;5054078;28;20025;-77
2021/12/08 01:09:12;;;;;;;0.20;0.20;;;7.00;80.90;;;;;;5054013;28;20510;-77
2021/12/08 01:11:38;;;;;;;0.08;0.08;;;7.00;80.60;;;;;;5053247;28;20036;-77
2021/12/08 01:14:05;;;;;;;0.00;0.00;;;7.00;80.60;;;;;;5053957;28;20029;-76
2021/12/08 01:16:32;;;;;;;0.00;0.00;;;7.00;80.60;;;;;;5052729;28;20028;-78
2021/12/08 01:18:58;;;;;;;0.10;0.10;;;7.10;80.70;;;;;;5053827;28;20033;-77
2021/12/08 01:21:23;;;;;;;0.00;0.00;;;7.10;80.70;;;;;;5053865;28;20033;-76
2021/12/08 01:23:50;;;;;;;0.00;0.00;;;7.00;80.70;;;;;;5054468;28;20380;-76
2021/12/08 01:26:16;;;;;;;0.00;0.00;;;7.10;80.80;;;;;;5052817;28;20082;-77
2021/12/08 01:28:42;;;;;;;0.40;0.00;;;7.00;80.90;;;;;;5054580;28;20025;-78
2021/12/08 01:31:07;;;;;;;0.20;0.20;;;7.10;80.90;;;;;;5053765;28;20111;-77
2021/12/08 01:33:36;;;;;;;0.00;0.00;;;7.20;80.70;;;;;;5054485;28;20109;-76
2021/12/08 01:36:04;;;;;;;0.00;0.00;;;7.20;80.50;;;;;;5054141;28;20025;-77
2021/12/08 01:38:30;;;;;;;0.00;0.00;;;7.20;80.40;;;;;;5054462;28;20036;-77
2021/12/08 01:40:56;;;;;;;0.00;0.00;;;7.30;80.00;;;;;;5052705;28;20033;-77
2021/12/08 01:43:40;;;;;;;0.00;0.00;;;7.20;79.80;;;;;;5054389;28;20068;-77
2021/12/08 01:46:08;;;;;;;0.00;0.00;;;7.30;79.60;;;;;;5054327;28;20033;-78
2021/12/08 01:48:36;;;;;;;0.00;0.00;;;7.20;79.70;;;;;;5054564;28;20032;-76
2021/12/08 01:51:11;;;;;;;0.00;0.00;;;7.20;79.40;;;;;;5057674;28;20045;-77
2021/12/08 01:53:41;;;;;;;;;;;7.20;79.40;;;;;;5058248;28;20419;-78
2021/12/08 01:56:08;;;;;;;0.00;0.00;;;7.20;79.40;;;;;;5073154;28;19905;-76
2021/12/08 01:58:34;;;;;;;0.00;0.00;;;7.20;79.50;;;;;;5057650;28;20036;-77
2021/12/08 02:01:07;;;;;;;0.00;0.00;;;7.20;79.80;;;;;;5057980;28;20029;-77
2021/12/08 02:03:33;;;;;;;0.00;0.00;;;7.20;79.60;;;;;;5056311;28;20491;-77
2021/12/08 02:05:59;;;;;;;0.00;0.00;;;7.20;79.50;;;;;;5057765;28;20048;-77
2021/12/08 02:08:27;;;;;;;0.00;0.00;;;7.20;79.30;;;;;;5056862;28;20021;-77
2021/12/08 02:10:53;;;;;;;0.00;0.00;;;7.20;79.30;;;;;;5057685;28;20028;-77
2021/12/08 02:13:19;;;;;;;0.00;0.00;;;7.30;79.10;;;;;;5056977;28;20029;-76
2021/12/08 02:15:45;;;;;;;0.00;0.00;;;7.30;78.90;;;;;;5057214;28;20457;-76
2021/12/08 02:18:14;;;;;;;0.00;0.00;;;7.30;79.00;;;;;;5057347;28;20037;-77
2021/12/08 02:20:43;;;;;;;0.00;0.00;;;7.30;78.80;;;;;;5040486;28;20422;-78
2021/12/08 02:23:08;;;;;;;0.00;0.00;;;7.30;78.80;;;;;;5057350;28;20441;-77
2021/12/08 02:25:35;;;;;;;0.00;0.00;;;7.30;78.90;;;;;;5055679;28;20074;-77
2021/12/08 02:28:02;;;;;;;0.00;0.00;;;7.30;79.00;;;;;;5056163;28;20048;-77
2021/12/08 02:30:36;;;;;;;0.00;0.00;;;7.30;79.10;;;;;;5057560;28;20028;-77
2021/12/08 02:47:05;;;;;;;0.00;0.00;;;7.20;78.90;;;;;;5056661;28;20027;-77
2021/12/08 02:49:32;;;;;;;0.00;0.00;;;7.10;78.90;;;;;;5055362;28;20047;-78
2021/12/08 02:51:58;;;;;;;0.00;0.00;;;7.10;79.00;;;;;;5055501;28;20025;-77
2021/12/08 02:54:24;;;;;;;0.00;0.00;;;7.10;79.00;;;;;;5055300;28;20056;-76
2021/12/08 02:56:53;;;;;;;0.00;0.00;;;7.10;79.00;;;;;;5056637;28;20409;-76
2021/12/08 02:59:19;;;;;;;0.20;0.00;;;7.00;79.20;;;;;;5057256;28;20040;-76
2021/12/08 03:01:45;;;;;;;0.00;0.00;;;7.00;79.20;;;;;;5055131;28;20484;-77
2021/12/08 03:04:11;;;;;;;0.80;0.05;;;6.90;79.50;;;;;;5055954;28;20072;-77
2021/12/08 03:06:37;;;;;;;0.08;0.08;;;6.90;79.40;;;;;;5055028;28;20024;-77
2021/12/08 03:09:06;;;;;;;0.00;0.00;;;6.90;79.80;;;;;;5056357;28;20025;-76
2021/12/08 03:11:32;;;;;;;0.00;0.00;;;6.90;80.00;;;;;;5056636;28;20056;-78
2021/12/08 03:14:08;;;;;;;0.10;0.10;;;6.90;80.20;;;;;;5055192;28;20032;-78
2021/12/08 03:16:37;;;;;;;0.00;0.00;;;6.90;80.00;;;;;;5038141;28;20056;-77
2021/12/08 03:19:03;;;;;;;0.25;0.25;;;6.90;79.90;;;;;;5056136;28;20453;-78
2021/12/08 03:21:31;;;;;;;0.00;0.00;;;6.90;80.20;;;;;;5055773;28;20064;-77
2021/12/08 03:26:35;;;;;;;0.00;0.00;;;6.90;80.10;;;;;;5055946;28;20031;-77
2021/12/08 03:29:17;;;;;;;0.10;0.10;;;7.00;80.60;;;;;;5056078;28;20028;-77
2021/12/08 03:31:45;;;;;;;0.68;0.55;;;7.00;80.60;;;;;;5056152;28;20029;-77
2021/12/08 03:34:11;;;;;;;0.00;0.00;;;7.10;80.40;;;;;;5055120;28;20123;-77
2021/12/08 03:36:38;;;;;;;0.43;0.43;;;7.20;80.40;;;;;;5056026;28;20035;-77
2021/12/08 03:39:05;;;;;;;0.73;0.73;;;7.20;80.20;;;;;;5055883;28;20086;-77
2021/12/08 03:41:34;;;;;;;0.80;0.80;;;7.20;80.10;;;;;;5056187;28;20037;-76
2021/12/08 03:44:03;;;;;;;0.00;0.00;;;7.20;79.90;;;;;;5054291;28;20116;-77
2021/12/08 03:46:31;;;;;;;0.28;0.28;;;7.20;79.90;;;;;;5054985;28;20029;-76
2021/12/08 03:48:59;;;;;;;0.10;0.10;;;7.20;79.80;;;;;;5055644;28;20469;-77
2021/12/08 03:51:25;;;;;;;0.00;0.00;;;7.20;79.80;;;;;;5055864;28;20469;-77
2021/12/08 03:53:51;;;;;;;0.00;0.00;;;7.20;80.10;;;;;;5055141;28;20108;-77
2021/12/08 03:56:18;;;;;;;0.00;0.00;;;7.20;80.10;;;;;;5055595;28;20025;-78
2021/12/08 03:58:43;;;;;;;0.38;0.38;;;7.20;80.20;;;;;;5055186;28;20037;-77
2021/12/08 04:01:10;;;;;;;0.70;0.63;;;7.20;80.10;;;;;;5055057;28;20060;-77
2021/12/08 04:03:36;;;;;;;0.10;0.10;;;7.30;80.20;;;;;;5053867;28;20041;-77
2021/12/08 04:06:14;;;;;;;0.40;0.40;;;7.20;80.40;;;;;;5055412;28;20032;-76
2021/12/08 04:08:44;;;;;;;0.00;0.00;;;7.30;80.30;;;;;;5054205;28;20116;-77
2021/12/08 04:11:11;;;;;;;0.32;0.17;;;7.30;80.10;;;;;;5055329;28;20033;-77
2021/12/08 04:14:04;;;;;;;0.00;0.00;;;7.30;80.10;;;;;;5053839;28;20029;-77
2021/12/08 04:16:45;;;;;;;0.08;0.00;;;7.30;80.10;;;;;;5054228;28;20090;-77
2021/12/08 04:19:12;;;;;;;0.63;0.63;;;7.40;80.10;;;;;;5054765;28;20025;-78
2021/12/08 04:21:39;;;;;;;0.30;0.30;;;7.40;79.90;;;;;;5055133;28;20029;-77
2021/12/08 04:24:06;;;;;;;0.20;0.20;;;7.40;79.70;;;;;;5053452;28;20028;-77
2021/12/08 04:26:45;;;;;;;1.23;0.57;;;7.40;79.80;;;;;;5053394;28;20029;-78
2021/12/08 04:29:16;;;;;;;0.13;0.10;;;7.50;79.60;;;;;;5053511;28;20032;-77
2021/12/08 04:31:43;;;;;;;0.30;0.30;;;7.40;80.00;;;;;;5055057;28;20033;-77
2021/12/08 04:34:16;;;;;;;0.15;0.00;;;7.40;80.10;;;;;;5054556;28;20032;-77
2021/12/08 04:36:46;;;;;;;0.75;0.75;;;7.40;80.20;;;;;;5054233;28;20051;-78
2021/12/08 04:39:19;;;;;;;0.50;0.50;;;7.40;80.20;;;;;;5054076;28;20532;-76
2021/12/08 04:41:51;;;;;;;0.10;0.10;;;7.40;80.20;;;;;;5054263;28;20036;-77
2021/12/08 05:06:02;;;;;;;0.57;0.57;;;7.50;79.90;;;;;;5053736;28;20032;-77
2021/12/08 05:08:34;;;;;;;0.00;0.00;;;7.50;79.80;;;;;;5053602;28;20032;-78
2021/12/08 05:11:00;;;;;;;0.15;0.15;;;7.50;79.70;;;;;;5052424;28;20025;-78
2021/12/08 05:13:26;;;;;;;1.90;1.80;;;7.50;79.60;;;;;;5054419;28;20108;-77
2021/12/08 05:15:56;;;;;;;0.00;0.00;;;7.40;79.60;;;;;;5054315;28;20103;-78
2021/12/08 05:18:29;;;;;;;0.00;0.00;;;7.40;79.90;;;;;;5053997;28;20029;-77
2021/12/08 05:21:13;;;;;;;0.00;0.00;;;7.50;80.00;;;;;;5052933;28;20060;-77
2021/12/08 05:23:57;;;;;;;1.33;1.33;;;7.50;80.10;;;;;;5053697;28;20052;-78
2021/12/08 05:26:34;;;;;;;0.40;0.40;;;7.50;79.70;;;;;;5054235;28;20033;-77
2021/12/08 05:29:13;;;;;;;0.13;0.13;;;7.40;79.80;;;;;;5054251;28;20101;-79
2021/12/08 05:31:40;;;;;;;0.10;0.10;;;7.40;80.00;;;;;;5054197;28;20479;-78
2021/12/08 05:34:06;;;;;;;0.20;0.10;;;7.50;80.20;;;;;;5053758;28;20048;-79
2021/12/08 05:36:33;;;;;;;0.50;0.50;;;7.50;80.00;;;;;;5053546;28;20056;-77
2021/12/08 05:39:00;;;;;;;0.50;0.50;;;7.50;80.30;;;;;;5053944;28;20079;-76
2021/12/08 05:41:32;;;;;;;0.80;0.45;;;7.50;80.00;;;;;;5053597;28;20041;-78
2021/12/08 05:43:58;;;;;;;1.98;1.88;;;7.50;79.90;;;;;;5053589;28;20104;-79
2021/12/08 05:46:27;;;;;;;0.22;0.22;;;7.40;80.00;;;;;;5053978;28;20032;-78
2021/12/08 05:48:53;;;;;;;0.75;0.75;;;7.40;80.20;;;;;;5053872;28;20021;-79
2021/12/08 05:51:24;;;;;;;0.00;0.00;;;7.30;80.40;;;;;;5053306;28;20021;-77
2021/12/08 05:53:55;;;;;;;0.00;0.00;;;7.30;81.00;;;;;;5051963;28;20029;-78
2021/12/08 05:56:21;;;;;;;2.38;2.28;;;7.40;81.00;;;;;;5053588;28;20021;-78
2021/12/08 05:58:51;;;;;;;0.00;0.00;;;7.40;81.20;;;;;;5053716;28;20049;-78
2021/12/08 06:01:22;;;;;;;0.00;0.00;;;7.40;81.40;;;;;;5051999;28;20037;-79
2021/12/08 06:03:49;;;;;;;0.00;0.00;;;7.50;81.40;;;;;;5052983;28;20504;-77
2021/12/08 06:06:18;;;;;;;0.63;0.22;;;7.60;81.30;;;;;;5053313;28;20043;-79
2021/12/08 06:08:44;;;;;;;0.88;0.88;;;7.60;81.10;;;;;;5052170;28;20431;-79
2021/12/08 06:11:10;;;;;;;0.43;0.38;;;7.70;80.70;;;;;;5051975;28;20461;-79
2021/12/08 06:13:38;;;;;;;1.38;1.35;;;7.70;80.70;;;;;;5052131;28;20032;-78
2021/12/08 06:16:06;;;;;;;0.30;0.30;;;7.70;80.70;;;;;;5053569;28;20025;-77
2021/12/08 06:18:38;;;;;;;0.30;0.30;;;7.60;80.70;;;;;;5053798;28;20377;-78
2021/12/08 06:21:16;;;;;;;0.10;0.10;;;7.70;80.80;;;;;;5053313;28;20039;-78
2021/12/08 06:23:43;;;;;;;0.00;0.00;;;7.80;80.90;;;;;;5053473;28;20079;-78
2021/12/08 06:26:12;;;;;;;0.00;0.00;;;7.80;80.70;;;;;;5051674;28;20488;-79
2021/12/08 06:28:38;;;;;;;0.38;0.20;;;7.90;80.80;;;;;;5053339;28;20056;-78
2021/12/08 06:31:05;;;;;;;0.30;0.30;;;7.90;80.80;;;;;;5052995;28;20028;-79
2021/12/08 06:33:31;;;;;;;0.00;0.00;;;7.90;80.70;;;;;;5053369;28;20032;-78
2021/12/08 06:36:03;;;;;;;0.40;0.40;;;8.00;80.50;;;;;;5053730;28;20154;-78
2021/12/08 06:38:29;;;;;;;0.00;0.00;;;8.00;80.40;;;;;;5056337;28;20048;-77
2021/12/08 06:40:58;;;;;;;1.75;1.65;;;8.00;80.30;;;;;;5056579;28;20040;-78
2021/12/08 06:43:28;;;;;;;0.35;0.35;;;8.00;80.20;;;;;;5056402;28;20040;-77
2021/12/08 06:45:57;;;;;;;0.20;0.20;;;8.10;80.30;;;;;;5056579;28;20437;-76
2021/12/08 06:48:27;;;;;;;2.63;2.53;;;8.00;80.00;;;;;;5055542;28;20027;-78
2021/12/08 06:50:58;;;;;;;1.35;1.35;;;8.00;80.20;;;;;;5055951;28;20021;-76
2021/12/08 06:53:25;;;;;;;0.90;0.90;;;8.00;80.20;;;;;;5055952;28;20383;-76
2021/12/08 06:55:57;;;;;;;1.10;1.00;;;8.00;80.30;;;;;;5055776;28;20032;-77
2021/12/08 06:58:26;;;;;;;0.20;0.20;;;8.00;80.10;;;;;;5056099;28;20112;-78
2021/12/08 07:04:29;;;;;;;0.73;0.73;;;7.90;80.70;;;;;;5056015;28;20056;-77
2021/12/08 07:07:14;;;;;;;0.88;0.75;;;7.90;80.60;;;;;;5055029;28;20056;-77
2021/12/08 07:09:50;;;;;;;0.77;0.77;;;7.90;80.70;;;;;;5054352;28;20060;-77
2021/12/08 07:12:31;;;;;;;1.30;1.30;;;7.90;80.80;;;;;;5054272;28;20033;-77
2021/12/08 07:15:13;;;;;;;0.75;0.57;;;7.90;81.00;;;;;;5056145;28;20111;-77
2021/12/08 07:17:42;;;;;;;1.98;1.88;;;7.90;80.90;;;;;;5055624;28;20025;-77
2021/12/08 07:20:18;;;;;;;0.10;0.10;;;7.90;81.60;;;;;;5054302;28;20060;-77
2021/12/08 07:22:47;;;;;;;1.25;1.25;;;7.90;80.90;;;;;;5055665;28;20100;-77
2021/12/08 07:25:15;;;;;;;0.32;0.32;;;8.00;80.90;;;;;;5055068;28;20027;-77
2021/12/08 07:27:43;;;;;;;0.00;0.00;;;8.00;81.00;;;;;;5054808;28;20036;-77
2021/12/08 07:30:20;;;;;;;0.70;0.60;;;8.00;80.90;;;;;;5053724;28;20040;-79
2021/12/08 07:32:47;;;;;;;0.43;0.43;;;8.00;81.00;;;;;;5055923;28;20025;-77
2021/12/08 07:35:29;;;;;;;0.10;0.10;;;8.00;81.00;;;;;;5055094;28;20048;-79
2021/12/08 07:37:55;;;;;;;0.20;0.20;;;8.00;81.10;;;;;;5039325;28;20461;-76
2021/12/08 07:40:52;;;;;;;1.52;1.08;;;8.10;81.10;;;;;;5055684;28;20080;-77
2021/12/08 07:43:21;;;;;;;0.77;0.45;;;8.10;81.10;;;;;;5055385;28;20025;-76
2021/12/08 07:45:48;;;;;;;0.08;0.08;;;8.10;80.80;;;;;;5055538;28;20029;-77
2021/12/08 07:48:24;;;;;;;0.63;0.45;;;8.20;81.10;;;;;;5053860;28;20056;-78
2021/12/08 07:50:59;;;;;;;1.30;1.30;;;8.20;80.90;;;;;;5055345;28;20107;-78
2021/12/08 07:53:27;;;;;;;1.70;1.60;;;8.20;80.90;;;;;;5054354;28;20377;-77
2021/12/08 07:56:00;;;;;;;5.70;5.30;;;8.30;80.70;;;;;;5055097;28;20389;-77
2021/12/08 07:58:26;;;;;;;0.98;0.98;;;8.30;80.70;;;;;;5055437;28;20029;-77
2021/12/08 08:00:57;;;;;;;1.30;1.30;;;8.20;80.90;;;;;;5055094;28;20041;-78
2021/12/08 08:03:24;;;;;;;0.85;0.85;;;8.20;81.00;;;;;;5054928;28;20049;-77
2021/12/08 08:05:52;;;;;;;2.65;2.55;;;8.20;81.00;;;;;;5054811;28;20039;-77
2021/12/08 08:08:20;;;;;;;0.15;0.15;;;8.20;81.20;;;;;;5055287;28;20025;-77
2021/12/08 08:10:50;;;;;;;0.25;0.25;;;8.20;81.20;;;;;;5055108;28;20052;-77
2021/12/08 08:13:18;;;;;;;0.10;0.10;;;8.20;81.80;;;;;;5055326;28;20021;-80
2021/12/08 08:15:48;;;;;;;0.20;0.20;;;8.20;81.80;;;;;;5053785;28;20365;-78
2021/12/08 08:18:19;;;;;;;0.00;0.00;;;8.30;81.90;;;;;;5037773;28;20033;-78
2021/12/08 08:20:50;;;;;;;0.00;0.00;;;8.30;81.80;;;;;;5053177;28;20441;-79
2021/12/08 08:23:19;;;;;;;0.00;0.00;;;8.40;81.80;;;;;;5036821;28;20028;-78
2021/12/08 08:25:47;;;;;;;0.00;0.00;;;8.40;81.80;;;;;;5054349;28;20017;-78
2021/12/08 08:28:16;;;;;;;0.00;0.00;;;8.40;81.70;;;;;;5053872;28;20048;-78
2021/12/08 08:30:51;;;;;;;0.00;0.00;;;8.50;81.60;;;;;;5054285;28;20037;-77
2021/12/08 08:33:18;;;;;;;0.00;0.00;;;8.50;81.60;;;;;;5054684;28;20104;-78
2021/12/08 08:36:07;;;;;;;0.00;0.00;;;8.50;81.40;;;;;;5053432;28;20025;-76
2021/12/08 08:38:44;;;;;;;0.00;0.00;;;8.50;81.00;;;;;;5053287;28;20029;-77
2021/12/08 08:41:18;;;;;;;0.00;0.00;;;8.60;81.00;;;;;;5053954;28;20037;-77
2021/12/08 08:43:46;;;;;;;0.00;0.00;;;8.60;80.50;;;;;;5054446;28;20036;-77
2021/12/08 08:46:19;;;;;;;0.00;0.00;;;8.60;80.10;;;;;;5053061;28;20029;-78
2021/12/08 08:48:51;;;;;;;0.15;0.10;;;8.60;80.00;;;;;;5054754;28;20449;-80
2021/12/08 08:51:47;;;;;;;0.10;0.10;;;8.60;80.00;;;;;;5052787;28;20025;-78
2021/12/08 08:54:20;;;;;;;0.00;0.00;;;8.60;79.60;;;;;;5052796;28;20044;-77
2021/12/08 08:56:56;;;;;;;0.10;0.10;;;8.60;79.70;;;;;;5052847;28;20032;-80
2021/12/08 08:59:33;;;;;;;0.00;0.00;;;8.60;79.60;;;;;;5053785;28;20105;-77
2021/12/08 09:02:04;;;;;;;0.00;0.00;;;8.50;79.50;;;;;;5054036;28;20037;-77
2021/12/08 09:04:39;;;;;;;0.00;0.00;;;8.50;79.50;;;;;;5036202;28;20131;-79
2021/12/08 09:07:09;;;;;;;0.10;0.10;;;8.40;79.60;;;;;;5053732;28;20021;-77
2021/12/08 09:09:39;;;;;;;0.03;0.03;;;8.30;79.70;;;;;;5054107;28;20511;-79
2021/12/08 09:12:11;;;;;;;0.20;0.20;;;8.30;79.80;;;;;;5054136;28;20033;-78
2021/12/08 09:14:46;;;;;;;0.00;0.00;;;8.30;80.00;;;;;;5053645;28;20465;-78
2021/12/08 09:17:18;;;;;;;0.10;0.10;;;8.40;80.10;;;;;;5054049;28;20025;-78
2021/12/08 09:19:49;;;;;;;0.00;0.00;;;8.40;79.50;;;;;;5053468;28;20025;-79
2021/12/08 09:22:27;;;;;;;0.00;0.00;;;8.40;79.10;;;;;;5054118;28;20033;-77
2021/12/08 09:25:19;;;;;;;0.00;0.00;;;8.40;79.10;;;;;;5053753;28;20021;-77
2021/12/08 09:27:52;;;;;;;0.00;0.00;;;8.40;79.10;;;;;;5054011;28;20043;-77
2021/12/08 09:30:34;;;;;;;0.00;0.00;;;8.40;79.00;;;;;;5053908;28;20055;-77
2021/12/08 09:33:05;;;;;;;0.00;0.00;;;8.40;79.00;;;;;;5053706;28;20487;-76
2021/12/08 09:35:45;;;;;;;0.00;0.00;;;8.40;78.60;;;;;;5053638;28;20033;-76
2021/12/08 09:38:22;;;;;;;0.00;0.00;;;8.40;78.70;;;;;;5052451;28;20021;-77
2021/12/08 09:41:03;;;;;;;0.00;0.00;;;8.40;79.00;;;;;;5052454;28;20033;-78
2021/12/08 09:43:48;;;;;;;0.00;0.00;;;8.40;79.10;;;;;;5053472;28;20021;-78
2021/12/08 09:46:52;;;;;;;0.00;0.00;;;8.30;79.30;;;;;;5053150;28;20029;-77
2021/12/08 09:49:26;;;;;;;0.00;0.00;;;8.40;79.50;;;;;;5051938;28;20021;-77
2021/12/08 09:51:55;;;;;;;0.00;0.00;;;8.50;79.30;;;;;;5049742;28;20041;-76
2021/12/08 09:54:22;;;;;;;0.00;0.00;;;8.50;79.10;;;;;;5052590;28;20163;-77
2021/12/08 09:56:53;;;;;;;0.00;0.00;;;8.50;79.10;;;;;;5053706;28;20035;-81
2021/12/08 09:59:22;;;;;;;0.00;0.00;;;8.50;78.70;;;;;;5053296;28;20119;-78
2021/12/08 10:01:51;;;;;;;0.00;0.00;;;8.50;78.90;;;;;;5053444;28;20033;-77
2021/12/08 10:04:16;;;;;;;0.00;0.00;;;8.50;78.90;;;;;;5053757;28;20063;-78
2021/12/08 10:06:49;;;;;;;0.00;0.00;;;8.50;78.70;;;;;;5053519;28;20025;-79
2021/12/08 10:09:17;;;;;;;0.00;0.00;;;8.50;78.80;;;;;;5051905;28;20124;-77
2021/12/08 10:11:44;;;;;;;0.00;0.00;;;8.50;78.60;;;;;;5058236;28;20116;-78
2021/12/08 10:14:09;;;;;;;0.00;0.00;;;8.60;78.50;;;;;;5056913;28;20473;-77
2021/12/08 10:16:36;;;;;;;0.00;0.00;;;8.50;78.60;;;;;;5057399;28;20067;-79
2021/12/08 10:19:04;;;;;;;0.00;0.00;;;8.50;78.50;;;;;;5057716;28;20399;-78
2021/12/08 10:21:41;;;;;;;0.00;0.00;;;8.40;78.80;;;;;;5057375;28;20037;-77
2021/12/08 10:24:33;;;;;;;0.00;0.00;;;8.40;78.90;;;;;;5057583;28;20021;-77
2021/12/08 10:27:08;;;;;;;0.00;0.00;;;8.40;79.00;;;;;;5055197;28;20029;-79
2021/12/08 10:29:34;;;;;;;0.00;0.00;;;8.40;79.20;;;;;;5057634;28;20056;-77
2021/12/08 10:32:02;;;;;;;0.00;0.00;;;8.40;79.20;;;;;;5056155;28;20476;-78
2021/12/08 10:34:35;;;;;;;0.00;0.00;;;8.40;79.10;;;;;;5057456;28;20414;-78
2021/12/08 10:37:07;;;;;;;0.00;0.00;;;8.50;79.20;;;;;;5057809;28;20116;-77
2021/12/08 10:39:52;;;;;;;0.00;0.00;;;8.50;79.30;;;;;;5056961;28;20468;-77
2021/12/08 10:42:23;;;;;;;0.00;0.00;;;8.40;79.20;;;;;;5057189;28;20062;-78
2021/12/08 10:45:21;;;;;;;0.00;0.00;;;8.50;79.30;;;;;;5056537;28;20025;-78
2021/12/08 10:47:50;;;;;;;0.00;0.00;;;8.50;79.30;;;;;;5057182;28;20048;-79
2021/12/08 10:56:05;;;;;;;0.00;0.00;;;8.50;79.40;;;;;;5056122;28;20083;-78
2021/12/08 10:58:36;;;;;;;0.00;0.00;;;8.60;79.60;;;;;;5056116;28;20025;-76
2021/12/08 11:01:18;;;;;;;0.00;0.00;;;8.60;79.70;;;;;;5056063;28;20120;-78
2021/12/08 11:03:45;;;;;;;0.00;0.00;;;8.70;79.30;;;;;;5056373;28;20143;-77
2021/12/08 11:06:15;;;;;;;0.00;0.00;;;8.70;79.30;;;;;;5055952;28;20457;-80
2021/12/08 11:08:44;;;;;;;0.00;0.00;;;8.70;79.30;;;;;;5056487;28;20199;-77
2021/12/08 11:11:20;;;;;;;0.00;0.00;;;8.80;79.30;;;;;;5056192;28;20056;-76
2021/12/08 11:14:06;;;;;;;0.10;0.10;;;8.80;79.20;;;;;;5056851;28;20108;-77
2021/12/08 11:16:33;;;;;;;0.00;0.00;;;8.80;79.00;;;;;;5056624;28;20033;-77
2021/12/08 11:19:06;;;;;;;0.20;0.20;;;8.90;79.00;;;;;;5056123;28;20056;-78
2021/12/08 11:21:55;;;;;;;0.00;0.00;;;8.90;78.80;;;;;;5055707;28;20025;-77
2021/12/08 11:24:35;;;;;;;0.00;0.00;;;8.90;78.90;;;;;;5056614;28;20081;-78
2021/12/08 11:27:05;;;;;;;0.00;0.00;;;8.90;78.80;;;;;;5056341;28;20032;-78
2021/12/08 11:29:34;;;;;;;0.00;0.00;;;8.90;78.80;;;;;;5055545;28;20021;-77
2021/12/08 11:32:06;;;;;;;0.00;0.00;;;8.90;78.80;;;;;;5055185;28;20055;-77
2021/12/08 11:34:46;;;;;;;0.00;0.00;;;9.00;78.60;;;;;;5055656;28;20116;-78
2021/12/08 11:37:16;;;;;;;0.00;0.00;;;8.90;78.30;;;;;;5056269;28;20036;-79
2021/12/08 11:39:48;;;;;;;0.00;0.00;;;8.90;78.40;;;;;;5054745;28;20040;-79
2021/12/08 11:42:24;;;;;;;0.00;0.00;;;8.90;78.50;;;;;;5054077;28;20079;-77
2021/12/08 11:44:57;;;;;;;0.00;0.00;;;8.90;78.50;;;;;;5055267;28;20031;-78
2021/12/08 11:47:29;;;;;;;0.00;0.00;;;8.90;78.50;;;;;;5056160;28;20083;-79
2021/12/08 11:49:57;;;;;;;0.00;0.00;;;9.00;78.60;;;;;;5054289;28;20060;-78
2021/12/08 11:52:29;;;;;;;0.00;0.00;;;8.90;78.80;;;;;;5055328;28;20070;-79
2021/12/08 11:55:00;;;;;;;0.00;0.00;;;8.90;78.60;;;;;;5056063;28;20357;-78
2021/12/08 11:57:28;;;;;;;0.00;0.00;;;8.90;78.90;;;;;;5055647;28;20376;-79
2021/12/08 12:00:00;;;;;;;0.00;0.00;;;8.90;78.90;;;;;;5055312;28;20027;-77
2021/12/08 12:02:36;;;;;;;0.00;0.00;;;8.90;79.00;;;;;;5055997;28;20477;-78
2021/12/08 12:05:06;;;;;;;0.00;0.00;;;8.90;79.00;;;;;;5054952;28;20056;-77
2021/12/08 12:07:32;;;;;;;0.00;0.00;;;8.90;78.90;;;;;;5054558;28;20114;-79
2021/12/08 12:09:58;;;;;;;0.00;0.00;;;8.90;78.90;;;;;;5053799;28;20029;-79
2021/12/08 12:12:24;;;;;;;0.00;0.00;;;8.80;79.00;;;;;;5053992;28;20105;-78
2021/12/08 12:14:50;;;;;;;0.00;0.00;;;8.80;79.00;;;;;;5053841;28;20029;-77
2021/12/08 12:17:18;;;;;;;0.00;0.00;;;8.70;79.40;;;;;;5054254;28;20061;-77
2021/12/08 12:20:12;;;;;;;0.00;0.00;;;8.70;79.40;;;;;;5053515;28;20062;-78
2021/12/08 12:22:59;;;;;;;0.20;0.20;;;8.60;79.50;;;;;;5040003;28;20033;-78
2021/12/08 12:25:34;;;;;;;1.23;1.23;;;8.60;80.00;;;;;;5053261;28;20087;-77
2021/12/08 12:28:24;;;;;;;0.52;0.25;;;8.60;80.30;;;;;;5054568;28;20021;-77
2021/12/08 12:31:08;;;;;;;0.90;0.90;;;8.60;80.30;;;;;;5054254;28;20415;-79
2021/12/08 12:33:44;;;;;;;0.10;0.10;;;8.70;80.60;;;;;;5054062;28;20053;-79
2021/12/08 12:36:27;;;;;;;0.30;0.30;;;8.70;80.80;;;;;;5053999;28;20021;-78
2021/12/08 12:39:20;;;;;;;0.20;0.20;;;8.70;80.90;;;;;;5054075;28;20021;-77
2021/12/08 12:42:15;;;;;;;0.98;0.98;;;8.70;80.70;;;;;;5053847;28;20059;-82
2021/12/08 12:44:57;;;;;;;0.10;0.10;;;8.70;80.90;;;;;;5053529;28;20040;-79
2021/12/08 12:47:26;;;;;;;0.00;0.00;;;8.80;80.80;;;;;;5053909;28;20388;-78
2021/12/08 12:50:21;;;;;;;1.02;1.02;;;8.80;80.80;;;;;;5054375;28;20033;-78
2021/12/08 12:53:01;;;;;;;0.55;0.55;;;8.80;81.00;;;;;;5052931;28;20056;-79
2021/12/08 12:55:30;;;;;;;0.30;0.30;;;8.80;80.90;;;;;;5054755;28;20481;-79
2021/12/08 12:58:08;;;;;;;0.32;0.32;;;8.80;81.10;;;;;;5055442;28;20029;-80
2021/12/08 13:00:57;;;;;;;0.85;0.85;;;8.90;81.00;;;;;;5055175;28;20039;-79
2021/12/08 13:03:42;;;;;;;0.10;0.10;;;8.90;81.10;;;;;;5055050;28;20404;-79
2021/12/08 13:06:37;;;;;;;0.60;0.60;;;8.90;81.10;;;;;;5054967;28;20055;-83
2021/12/08 13:09:09;;;;;;;0.35;0.35;;;8.90;80.90;;;;;;5054565;28;20047;-83
2021/12/08 13:12:14;;;;;;;0.30;0.15;;;8.90;81.20;;;;;;5054978;28;20123;-79
2021/12/08 13:14:34;;;;;;;1.30;1.30;;;8.90;81.00;;;;;;5054520;28;20033;-81
2021/12/08 13:17:26;;;;;;;0.00;0.00;;;8.90;81.00;;;;;;5053330;28;20032;-82
2021/12/08 13:19:58;;;;;;;0.20;0.20;;;8.90;81.20;;;;;;5051895;28;20033;-82
2021/12/08 13:22:51;;;;;;;0.60;0.60;;;8.90;81.40;;;;;;5054138;28;20029;-82
2021/12/08 13:25:30;;;;;;;0.77;0.77;;;9.00;81.20;;;;;;5054267;28;20468;-81
2021/12/08 13:28:19;;;;;;;1.00;1.00;;;9.00;81.10;;;;;;5054672;28;20112;-78
2021/12/08 13:30:57;;;;;;;0.80;0.80;;;8.90;81.10;;;;;;5054067;28;20488;-78
2021/12/08 13:33:39;;;;;;;0.28;0.25;;;8.90;80.90;;;;;;5055116;28;20021;-79
2021/12/08 13:36:28;;;;;;;4.50;4.22;;;8.90;80.90;;;;;;5054632;28;20475;-79
2021/12/08 13:38:54;;;;;;;0.93;0.93;;;8.90;81.30;;;;;;5054104;28;20032;-78
2021/12/08 13:41:21;;;;;;;1.48;1.48;;;8.80;81.50;;;;;;5054346;28;20029;-78
2021/12/08 13:43:52;;;;;;;1.60;1.55;;;8.80;81.70;;;;;;5053267;28;20488;-77
2021/12/08 13:46:37;;;;;;;0.77;0.77;;;8.80;81.90;;;;;;5058006;28;20080;-79
2021/12/08 13:49:18;;;;;;;0.03;0.03;;;8.80;81.90;;;;;;5057134;28;20052;-77
2021/12/08 13:52:08;;;;;;;0.55;0.40;;;8.80;82.10;;;;;;5057045;28;20029;-80
2021/12/08 13:54:43;;;;;;;0.00;0.00;;;8.80;81.90;;;;;;5057899;28;20100;-77
2021/12/08 13:57:31;;;;;;;0.30;0.30;;;8.80;82.20;;;;;;5056734;28;20477;-78
2021/12/08 14:00:05;;;;;;;0.65;0.57;;;8.80;82.30;;;;;;5057610;28;20016;-78
2021/12/08 14:02:46;;;;;;;1.73;1.67;;;8.80;82.10;;;;;;5058129;28;20037;-77
2021/12/08 14:05:19;;;;;;;0.13;0.13;;;8.80;82.20;;;;;;5058386;28;20041;-79
2021/12/08 14:07:48;;;;;;;0.45;0.45;;;8.80;81.90;;;;;;5057334;28;20060;-78
2021/12/08 14:10:17;;;;;;;0.35;0.30;;;8.80;82.30;;;;;;5058338;28;20028;-80
2021/12/08 14:12:51;;;;;;;0.38;0.38;;;8.80;82.20;;;;;;5057492;28;20412;-79